createdAt,value
2022-10-14T00:01:27.963Z,10.30
2022-10-14T00:03:56.575Z,10.31
2022-10-14T00:06:28.540Z,10.31
2022-10-14T00:08:57.882Z,10.31
2022-10-14T00:11:29.705Z,10.29
2022-10-14T00:14:01.044Z,10.31
2022-10-14T00:16:35.426Z,10.33
2022-10-14T00:19:04.938Z,10.31
2022-10-14T00:21:34.692Z,10.31
2022-10-14T00:24:03.353Z,10.31
2022-10-14T00:26:35.081Z,10.25
2022-10-14T00:29:06.606Z,10.25
2022-10-14T00:31:37.246Z,10.26
2022-10-14T00:34:05.997Z,10.26
2022-10-14T00:36:35.171Z,10.25
2022-10-14T00:39:03.827Z,10.24
2022-10-14T00:41:36.235Z,10.19
2022-10-14T00:44:07.505Z,10.18
2022-10-14T00:46:41.045Z,10.17
2022-10-14T00:49:14.510Z,10.14
2022-10-14T00:51:46.664Z,10.16
2022-10-14T00:54:18.727Z,10.15
2022-10-14T00:56:49.278Z,10.15
2022-10-14T00:59:18.873Z,10.21
2022-10-14T01:01:48.692Z,10.27
2022-10-14T01:04:18.536Z,10.31
2022-10-14T01:07:03.440Z,10.29
2022-10-14T01:09:36.408Z,10.24
2022-10-14T01:12:35.351Z,10.19
2022-10-14T01:15:18.038Z,10.16
2022-10-14T01:18:02.832Z,10.14
2022-10-14T01:20:46.531Z,10.15
2022-10-14T01:23:39.836Z,10.17
2022-10-14T01:26:30.323Z,10.13
2022-10-14T01:29:21.591Z,10.10
2022-10-14T01:32:01.192Z,10.06
2022-10-14T01:34:44.036Z,10.05
2022-10-14T01:37:20.370Z,10.06
2022-10-14T01:39:56.371Z,10.08
2022-10-14T01:42:27.520Z,10.12
2022-10-14T01:45:02.534Z,10.11
2022-10-14T01:47:36.667Z,10.13
2022-10-14T01:50:13.863Z,10.11
2022-10-14T01:52:48.520Z,10.07
2022-10-14T01:55:22.216Z,10.09
2022-10-14T01:57:54.607Z,10.05
2022-10-14T02:00:23.436Z,10.07
2022-10-14T02:02:53.088Z,10.08
2022-10-14T02:05:30.279Z,10.13
2022-10-14T02:08:08.554Z,10.17
2022-10-14T02:11:02.196Z,10.21
2022-10-14T02:13:57.686Z,10.23
2022-10-14T02:16:39.090Z,10.25
2022-10-14T02:19:27.208Z,10.20
2022-10-14T02:22:02.966Z,10.19
2022-10-14T02:24:37.730Z,10.17
2022-10-14T02:27:12.081Z,10.17
2022-10-14T02:29:45.860Z,10.12
2022-10-14T02:32:20.319Z,10.12
2022-10-14T02:34:58.021Z,10.16
2022-10-14T02:37:28.826Z,10.18
2022-10-14T02:40:06.107Z,10.14
2022-10-14T02:42:35.003Z,10.11
2022-10-14T02:45:07.660Z,10.11
2022-10-14T02:47:36.350Z,10.08
2022-10-14T02:50:07.060Z,10.06
2022-10-14T02:52:35.565Z,10.07
2022-10-14T02:55:03.990Z,10.06
2022-10-14T02:57:32.298Z,10.04
2022-10-14T03:00:00.559Z,10.04
2022-10-14T03:02:29.660Z,10.02
2022-10-14T03:05:00.040Z,9.99
2022-10-14T03:07:31.683Z,9.95
2022-10-14T03:10:04.907Z,9.92
2022-10-14T03:12:36.866Z,9.91
2022-10-14T03:15:07.175Z,9.90
2022-10-14T03:17:36.651Z,9.88
2022-10-14T03:20:08.472Z,9.86
2022-10-14T03:22:46.240Z,9.86
2022-10-14T03:25:15.133Z,9.85
2022-10-14T03:27:57.584Z,9.82
2022-10-14T03:30:38.449Z,9.88
2022-10-14T03:33:15.104Z,9.89
2022-10-14T03:36:02.890Z,9.85
2022-10-14T03:38:45.352Z,9.83
2022-10-14T03:41:23.712Z,9.83
2022-10-14T03:43:53.945Z,9.81
2022-10-14T03:46:22.730Z,9.82
2022-10-14T03:48:53.886Z,9.87
2022-10-14T03:51:22.644Z,9.90
2022-10-14T03:53:52.413Z,9.91
2022-10-14T03:56:29.197Z,9.95
2022-10-14T03:58:57.590Z,9.93
2022-10-14T04:01:27.125Z,9.96
2022-10-14T04:04:16.125Z,9.96
2022-10-14T04:06:44.805Z,9.95
2022-10-14T04:09:15.037Z,9.96
2022-10-14T04:11:44.053Z,9.96
2022-10-14T04:14:29.681Z,9.96
2022-10-14T04:16:59.422Z,9.98
2022-10-14T04:19:29.362Z,9.99
2022-10-14T04:21:58.050Z,10.07
2022-10-14T04:24:30.556Z,10.10
2022-10-14T04:27:00.944Z,10.12
2022-10-14T04:29:53.823Z,10.17
2022-10-14T04:32:29.859Z,10.12
2022-10-14T04:34:58.774Z,10.15
2022-10-14T04:37:32.028Z,10.16
2022-10-14T04:40:25.630Z,10.14
2022-10-14T04:42:59.222Z,10.15
2022-10-14T04:45:33.760Z,10.16
2022-10-14T04:48:05.526Z,10.17
2022-10-14T04:50:39.719Z,10.20
2022-10-14T04:53:27.971Z,10.24
2022-10-14T04:56:14.609Z,10.23
2022-10-14T04:58:53.965Z,10.21
2022-10-14T05:01:26.589Z,10.18
2022-10-14T05:03:59.346Z,10.16
2022-10-14T05:06:27.998Z,10.21
2022-10-14T05:08:57.816Z,10.23
2022-10-14T05:11:29.906Z,10.22
2022-10-14T05:14:00.042Z,10.19
2022-10-14T05:16:31.373Z,10.20
2022-10-14T05:18:59.764Z,10.23
2022-10-14T05:21:29.679Z,10.22
2022-10-14T05:24:11.195Z,10.19
2022-10-14T05:26:43.420Z,10.22
2022-10-14T05:29:15.008Z,10.22
2022-10-14T05:31:45.188Z,10.21
2022-10-14T05:34:27.173Z,10.19
2022-10-14T05:36:57.699Z,10.17
2022-10-14T05:39:27.221Z,10.16
2022-10-14T05:41:59.046Z,10.12
2022-10-14T05:44:30.622Z,10.11
2022-10-14T05:47:00.438Z,10.11
2022-10-14T05:49:29.296Z,10.08
2022-10-14T05:51:59.883Z,10.07
2022-10-14T05:54:28.739Z,10.09
2022-10-14T05:57:00.297Z,10.13
2022-10-14T05:59:30.266Z,10.12
2022-10-14T06:01:59.713Z,10.12
2022-10-14T06:04:29.022Z,10.11
2022-10-14T06:06:59.689Z,10.06
2022-10-14T06:09:28.392Z,10.05
2022-10-14T06:11:56.727Z,10.04
2022-10-14T06:14:26.555Z,10.03
2022-10-14T06:16:55.755Z,10.05
2022-10-14T06:19:25.649Z,10.08
2022-10-14T06:21:54.448Z,10.08
2022-10-14T06:24:23.060Z,10.07
2022-10-14T06:26:51.784Z,10.03
2022-10-14T06:29:20.374Z,10.04
2022-10-14T06:31:50.279Z,10.15
2022-10-14T06:34:22.707Z,10.22
2022-10-14T06:36:51.090Z,10.36
2022-10-14T06:39:19.788Z,10.51
2022-10-14T06:41:48.401Z,10.87
2022-10-14T06:44:21.098Z,11.31
2022-10-14T06:46:50.856Z,11.49
2022-10-14T06:49:19.347Z,11.93
2022-10-14T06:51:47.692Z,12.28
2022-10-14T06:54:17.446Z,12.54
2022-10-14T06:56:46.119Z,12.69
2022-10-14T06:59:14.726Z,12.93
2022-10-14T07:01:43.407Z,12.83
2022-10-14T07:04:13.403Z,12.63
2022-10-14T07:06:41.853Z,12.37
2022-10-14T07:09:10.418Z,12.29
2022-10-14T07:11:39.053Z,12.32
2022-10-14T07:14:07.374Z,12.11
2022-10-14T07:16:35.804Z,12.09
2022-10-14T07:19:04.568Z,12.17
2022-10-14T07:21:34.313Z,12.23
2022-10-14T07:24:03.052Z,12.26
2022-10-14T07:26:32.139Z,12.20
2022-10-14T07:29:01.236Z,12.14
2022-10-14T07:31:30.021Z,12.15
2022-10-14T07:33:58.729Z,12.23
2022-10-14T07:36:27.419Z,12.32
2022-10-14T07:38:57.293Z,12.35
2022-10-14T07:41:26.778Z,12.42
2022-10-14T07:44:01.921Z,12.45
2022-10-14T07:46:32.419Z,12.49
2022-10-14T07:49:08.505Z,12.66
2022-10-14T07:51:37.648Z,12.82
2022-10-14T07:54:10.434Z,12.89
2022-10-14T07:56:39.623Z,12.90
2022-10-14T07:59:08.303Z,12.95
2022-10-14T08:01:37.454Z,13.12
2022-10-14T08:04:06.383Z,13.19
2022-10-14T08:06:35.049Z,13.14
2022-10-14T08:09:07.593Z,13.21
2022-10-14T08:11:37.594Z,13.12
2022-10-14T08:14:06.747Z,12.84
2022-10-14T08:16:37.237Z,12.90
2022-10-14T08:19:13.497Z,13.10
2022-10-14T08:21:43.787Z,13.18
2022-10-14T08:24:13.765Z,13.52
2022-10-14T08:26:50.955Z,13.61
2022-10-14T08:29:19.332Z,13.71
2022-10-14T08:31:47.940Z,13.92
2022-10-14T08:34:16.471Z,14.07
2022-10-14T08:36:45.189Z,14.25
2022-10-14T08:39:15.102Z,14.45
2022-10-14T08:42:05.776Z,14.47
2022-10-14T08:44:46.698Z,14.44
2022-10-14T08:47:18.051Z,14.55
2022-10-14T08:50:01.591Z,14.47
2022-10-14T08:52:37.889Z,14.51
2022-10-14T08:55:24.546Z,14.88
2022-10-14T08:57:58.785Z,16.10
2022-10-14T09:00:29.389Z,16.52
2022-10-14T09:03:01.129Z,17.00
2022-10-14T09:05:29.999Z,17.10
2022-10-14T09:07:59.623Z,17.04
2022-10-14T09:10:36.013Z,16.74
2022-10-14T09:13:12.998Z,16.58
2022-10-14T09:15:44.859Z,16.25
2022-10-14T09:18:25.311Z,15.89
2022-10-14T09:20:54.772Z,15.79
2022-10-14T09:23:25.347Z,15.71
2022-10-14T09:25:59.580Z,15.40
2022-10-14T09:28:38.277Z,15.67
2022-10-14T09:31:09.246Z,15.56
2022-10-14T09:33:42.309Z,16.02
2022-10-14T09:36:19.329Z,15.90
2022-10-14T09:38:51.634Z,16.43
2022-10-14T09:41:29.105Z,16.80
2022-10-14T09:44:25.486Z,16.97
2022-10-14T09:46:57.899Z,18.13
2022-10-14T09:49:39.117Z,19.08
2022-10-14T09:52:09.233Z,19.98
2022-10-14T09:54:37.977Z,20.42
2022-10-14T09:57:18.173Z,20.12
2022-10-14T09:59:56.109Z,19.09
2022-10-14T10:02:35.973Z,18.94
2022-10-14T10:05:14.864Z,18.26
2022-10-14T10:07:43.532Z,17.07
2022-10-14T10:10:22.008Z,17.07
2022-10-14T10:12:51.785Z,16.52
2022-10-14T10:15:22.564Z,16.54
2022-10-14T10:17:52.193Z,16.85
2022-10-14T10:20:28.582Z,16.68
2022-10-14T10:22:58.189Z,16.64
2022-10-14T10:25:28.578Z,16.70
2022-10-14T10:28:00.918Z,16.96
2022-10-14T10:30:34.000Z,17.00
2022-10-14T10:33:23.465Z,17.10
2022-10-14T10:36:02.456Z,17.25
2022-10-14T10:38:38.688Z,17.35
2022-10-14T10:41:23.647Z,17.50
2022-10-14T10:44:12.756Z,17.80
2022-10-14T10:47:07.814Z,17.81
2022-10-14T10:50:10.044Z,18.09
2022-10-14T10:52:54.213Z,17.55
2022-10-14T10:55:32.327Z,17.39
2022-10-14T10:58:12.511Z,17.57
2022-10-14T11:00:58.109Z,17.71
2022-10-14T11:03:52.363Z,18.77
2022-10-14T11:06:47.889Z,19.94
2022-10-14T11:09:47.864Z,21.17
2022-10-14T11:12:27.518Z,22.64
2022-10-14T11:15:31.205Z,23.13
2022-10-14T11:18:04.861Z,23.98
2022-10-14T11:20:49.738Z,22.01
2022-10-14T11:23:49.291Z,22.93
2022-10-14T11:26:41.528Z,22.65
2022-10-14T11:29:29.424Z,22.42
2022-10-14T11:32:11.217Z,21.75
2022-10-14T11:34:49.040Z,20.24
2022-10-14T11:37:33.297Z,18.84
2022-10-14T11:40:15.906Z,18.53
2022-10-14T11:43:02.851Z,18.57
2022-10-14T11:45:43.781Z,18.06
2022-10-14T11:48:28.905Z,17.93
2022-10-14T11:51:14.792Z,17.86
2022-10-14T11:54:01.004Z,17.93
2022-10-14T11:56:49.612Z,17.91
2022-10-14T11:59:40.404Z,18.09
2022-10-14T12:02:27.458Z,18.04
2022-10-14T12:05:03.611Z,18.07
2022-10-14T12:07:40.407Z,17.86
2022-10-14T12:10:25.743Z,17.84
2022-10-14T12:12:56.721Z,17.90
2022-10-14T12:15:28.086Z,17.84
2022-10-14T12:18:00.799Z,17.71
2022-10-14T12:20:40.136Z,17.42
2022-10-14T12:23:16.884Z,17.31
2022-10-14T12:25:56.871Z,17.38
2022-10-14T12:28:25.811Z,17.12
2022-10-14T12:31:14.497Z,17.37
2022-10-14T12:34:18.990Z,17.36
2022-10-14T12:36:50.778Z,17.37
2022-10-14T12:39:43.497Z,17.47
2022-10-14T12:42:15.923Z,17.30
2022-10-14T12:44:51.911Z,17.26
2022-10-14T12:47:23.529Z,17.43
2022-10-14T12:49:56.255Z,17.29
2022-10-14T12:52:30.780Z,16.90
2022-10-14T12:55:05.138Z,17.04
2022-10-14T12:57:38.699Z,17.00
2022-10-14T13:00:33.326Z,16.89
2022-10-14T13:03:04.413Z,16.54
2022-10-14T13:05:36.834Z,16.75
2022-10-14T13:08:15.494Z,16.72
2022-10-14T13:10:48.391Z,16.81
2022-10-14T13:13:52.889Z,16.73
2022-10-14T13:17:00.435Z,16.65
2022-10-14T13:19:44.572Z,16.54
2022-10-14T13:22:41.783Z,16.56
2022-10-14T13:25:29.589Z,16.57
2022-10-14T13:28:25.665Z,16.70
2022-10-14T13:31:06.242Z,16.78
2022-10-14T13:33:41.886Z,16.62
2022-10-14T13:36:19.870Z,16.50
2022-10-14T13:38:55.418Z,16.44
2022-10-14T13:41:30.737Z,16.37
2022-10-14T13:44:02.673Z,16.27
2022-10-14T13:46:36.535Z,16.26
2022-10-14T13:51:52.830Z,16.24
2022-10-14T13:54:24.216Z,16.13
2022-10-14T13:57:38.735Z,16.08
2022-10-14T14:02:53.828Z,16.09
2022-10-14T14:05:28.057Z,16.08
2022-10-14T14:08:31.697Z,16.11
2022-10-14T14:11:15.177Z,16.18
2022-10-14T14:13:58.934Z,16.34
2022-10-14T14:16:34.988Z,16.36
2022-10-14T14:19:09.563Z,16.33
2022-10-14T14:21:39.075Z,16.26
2022-10-14T14:24:19.884Z,16.24
2022-10-14T14:26:56.585Z,16.12
2022-10-14T14:29:29.974Z,16.10
2022-10-14T14:32:07.075Z,16.08
2022-10-14T14:34:38.629Z,16.02
2022-10-14T14:37:43.548Z,16.13
2022-10-14T14:39:59.886Z,16.05
2022-10-14T14:42:31.715Z,15.94
2022-10-14T14:45:06.398Z,15.84
2022-10-14T14:47:36.307Z,15.83
2022-10-14T14:50:29.077Z,15.88
2022-10-14T14:53:02.082Z,15.91
2022-10-14T14:55:44.939Z,15.94
2022-10-14T14:58:28.629Z,15.92
2022-10-14T15:00:57.870Z,15.89
2022-10-14T15:03:31.200Z,15.82
2022-10-14T15:06:03.439Z,15.78
2022-10-14T15:08:35.021Z,15.74
2022-10-14T15:11:03.802Z,15.64
2022-10-14T15:13:46.484Z,15.62
2022-10-14T15:16:15.251Z,15.65
2022-10-14T15:18:44.945Z,15.63
2022-10-14T15:21:19.818Z,15.62
2022-10-14T15:24:03.202Z,15.48
2022-10-14T15:26:36.231Z,15.27
2022-10-14T15:29:18.777Z,15.13
2022-10-14T15:32:03.659Z,15.10
2022-10-14T15:34:35.679Z,15.10
2022-10-14T15:37:04.355Z,15.17
2022-10-14T15:39:33.035Z,15.17
2022-10-14T15:42:01.723Z,15.25
2022-10-14T15:44:33.209Z,15.94
2022-10-14T15:47:19.260Z,16.26
2022-10-14T15:49:50.838Z,15.82
2022-10-14T15:52:22.983Z,15.65
2022-10-14T15:54:54.822Z,15.42
2022-10-14T15:57:23.812Z,15.28
2022-10-14T15:59:53.725Z,15.11
2022-10-14T16:02:33.776Z,15.06
2022-10-14T16:05:20.892Z,14.91
2022-10-14T16:07:50.704Z,14.80
2022-10-14T16:10:21.920Z,14.74
2022-10-14T16:12:51.001Z,14.67
2022-10-14T16:15:33.335Z,14.58
2022-10-14T16:18:01.905Z,14.54
2022-10-14T16:20:32.172Z,14.43
2022-10-14T16:23:04.272Z,14.38
2022-10-14T16:25:39.340Z,14.42
2022-10-14T16:28:10.270Z,14.34
2022-10-14T16:30:41.521Z,14.29
2022-10-14T16:35:50.338Z,14.16
2022-10-14T16:38:18.956Z,14.11
2022-10-14T16:40:54.334Z,14.05
2022-10-14T16:43:22.764Z,14.06
2022-10-14T16:45:51.378Z,14.09
2022-10-14T16:48:20.053Z,14.03
2022-10-14T16:50:53.540Z,14.03
2022-10-14T16:53:44.637Z,13.96
2022-10-14T16:56:37.070Z,13.93
2022-10-14T16:59:07.689Z,13.94
2022-10-14T17:01:37.275Z,13.93
2022-10-14T17:04:14.912Z,13.92
2022-10-14T17:06:44.610Z,13.94
2022-10-14T17:09:14.051Z,13.98
2022-10-14T17:11:43.096Z,14.00
2022-10-14T17:14:15.408Z,14.00
2022-10-14T17:16:44.278Z,13.94
2022-10-14T17:19:12.922Z,13.86
2022-10-14T17:21:41.561Z,13.87
2022-10-14T17:24:13.045Z,13.86
2022-10-14T17:26:41.687Z,13.78
2022-10-14T17:29:10.285Z,13.81
2022-10-14T17:31:38.966Z,13.85
2022-10-14T17:34:10.807Z,13.82
2022-10-14T17:36:40.189Z,13.84
2022-10-14T17:39:16.358Z,13.83
2022-10-14T17:41:51.083Z,13.86
2022-10-14T17:44:20.179Z,13.82
2022-10-14T17:46:48.794Z,13.81
2022-10-14T17:49:17.419Z,13.82
2022-10-14T17:51:46.019Z,13.88
2022-10-14T17:54:14.642Z,13.82
2022-10-14T17:56:43.454Z,13.76
2022-10-14T17:59:14.387Z,13.77
2022-10-14T18:02:01.476Z,13.73
2022-10-14T18:04:32.513Z,13.70
2022-10-14T18:07:01.544Z,13.70
2022-10-14T18:09:30.231Z,13.62
2022-10-14T18:12:14.244Z,13.62
2022-10-14T18:14:44.505Z,13.58
2022-10-14T18:17:14.250Z,13.62
2022-10-14T18:19:45.048Z,13.71
2022-10-14T18:22:16.977Z,13.69
2022-10-14T18:24:45.879Z,13.66
2022-10-14T18:27:14.521Z,13.66
2022-10-14T18:29:44.208Z,13.66
2022-10-14T18:32:12.878Z,13.61
2022-10-14T18:34:41.549Z,13.54
2022-10-14T18:37:10.235Z,13.53
2022-10-14T18:39:38.915Z,13.60
2022-10-14T18:42:07.704Z,13.59
2022-10-14T18:44:36.326Z,13.60
2022-10-14T18:47:06.898Z,13.55
2022-10-14T18:49:39.903Z,13.52
2022-10-14T18:52:09.682Z,13.52
2022-10-14T18:54:38.118Z,13.55
2022-10-14T18:57:06.460Z,13.58
2022-10-14T18:59:35.880Z,13.53
2022-10-14T19:02:06.649Z,13.51
2022-10-14T19:04:35.438Z,13.52
2022-10-14T19:07:04.283Z,13.50
2022-10-14T19:09:34.448Z,13.50
2022-10-14T19:12:24.099Z,13.47
2022-10-14T19:14:53.111Z,13.44
2022-10-14T19:17:23.277Z,13.44
2022-10-14T19:19:51.609Z,13.38
2022-10-14T19:22:20.434Z,13.32
2022-10-14T19:24:49.177Z,13.28
2022-10-14T19:27:17.868Z,13.21
2022-10-14T19:29:46.491Z,13.19
2022-10-14T19:32:14.832Z,13.15
2022-10-14T19:34:47.479Z,13.07
2022-10-14T19:37:15.964Z,13.03
2022-10-14T19:39:44.372Z,12.99
2022-10-14T19:42:12.776Z,12.94
2022-10-14T19:44:41.521Z,12.97
2022-10-14T19:47:10.214Z,12.98
2022-10-14T19:49:38.916Z,12.99
2022-10-14T19:52:09.027Z,12.99
2022-10-14T19:54:37.600Z,12.96
2022-10-14T19:57:06.300Z,12.94
2022-10-14T19:59:34.940Z,12.94
2022-10-14T20:02:03.290Z,12.96
2022-10-14T20:04:31.712Z,12.99
2022-10-14T20:07:00.396Z,12.96
2022-10-14T20:09:30.167Z,12.93
2022-10-14T20:11:58.882Z,12.90
2022-10-14T20:14:27.989Z,12.88
2022-10-14T20:16:56.625Z,12.85
2022-10-14T20:19:25.330Z,12.81
2022-10-14T20:21:53.980Z,12.84
2022-10-14T20:24:22.602Z,12.87
2022-10-14T20:26:52.576Z,12.83
2022-10-14T20:29:21.199Z,12.81
2022-10-14T20:31:49.874Z,12.78
2022-10-14T20:34:18.458Z,12.78
2022-10-14T20:36:47.117Z,12.76
2022-10-14T20:39:15.693Z,12.84
2022-10-14T20:41:44.429Z,12.88
2022-10-14T20:44:14.446Z,12.84
2022-10-14T20:46:43.097Z,12.91
2022-10-14T20:49:12.267Z,12.93
2022-10-14T20:51:41.209Z,12.86
2022-10-14T20:54:11.860Z,12.84
2022-10-14T20:56:40.641Z,12.79
2022-10-14T20:59:13.258Z,12.78
2022-10-14T21:01:43.062Z,12.85
2022-10-14T21:04:12.080Z,12.83
2022-10-14T21:06:41.206Z,12.80
2022-10-14T21:09:10.752Z,12.81
2022-10-14T21:11:39.417Z,12.83
2022-10-14T21:14:08.026Z,12.82
2022-10-14T21:16:39.858Z,12.82
2022-10-14T21:19:11.172Z,12.80
2022-10-14T21:21:42.814Z,12.74
2022-10-14T21:24:14.508Z,12.69
2022-10-14T21:26:42.804Z,12.63
2022-10-14T21:29:11.757Z,12.65
2022-10-14T21:31:40.935Z,12.67
2022-10-14T21:34:12.512Z,12.61
2022-10-14T21:36:42.043Z,12.58
2022-10-14T21:39:13.375Z,12.55
2022-10-14T21:41:43.344Z,12.53
2022-10-14T21:44:16.358Z,12.52
2022-10-14T21:46:45.225Z,12.50
2022-10-14T21:49:15.584Z,12.46
2022-10-14T21:51:44.223Z,12.50
2022-10-14T21:54:13.180Z,12.50
2022-10-14T21:56:41.576Z,12.49
2022-10-14T21:59:10.561Z,12.46
2022-10-14T22:01:39.348Z,12.43
2022-10-14T22:04:08.449Z,12.41
2022-10-14T22:06:38.752Z,12.41
2022-10-14T22:09:09.015Z,12.39
2022-10-14T22:11:40.131Z,12.40
2022-10-14T22:14:13.373Z,12.41
2022-10-14T22:16:42.265Z,12.45
2022-10-14T22:19:13.499Z,12.44
2022-10-14T22:21:46.189Z,12.44
2022-10-14T22:24:15.050Z,12.44
2022-10-14T22:26:43.899Z,12.44
2022-10-14T22:29:14.830Z,12.46
2022-10-14T22:31:43.725Z,12.47
2022-10-14T22:34:14.340Z,12.46
2022-10-14T22:36:44.927Z,12.45
2022-10-14T22:39:17.307Z,12.44
2022-10-14T22:41:46.010Z,12.43
2022-10-14T22:44:14.301Z,12.36
2022-10-14T22:46:42.954Z,12.37
2022-10-14T22:49:11.384Z,12.34
2022-10-14T22:51:41.313Z,12.31
2022-10-14T22:54:11.624Z,12.28
2022-10-14T22:56:40.916Z,12.27
2022-10-14T22:59:11.297Z,12.25
2022-10-14T23:01:41.280Z,12.25
2022-10-14T23:04:10.797Z,12.23
2022-10-14T23:06:40.302Z,12.25
2022-10-14T23:09:10.295Z,12.24
2022-10-14T23:11:39.489Z,12.24
2022-10-14T23:14:08.225Z,12.25
2022-10-14T23:16:37.297Z,12.21
2022-10-14T23:19:05.932Z,12.21
2022-10-14T23:21:36.261Z,12.23
2022-10-14T23:24:07.479Z,12.24
2022-10-14T23:26:37.925Z,12.23
2022-10-14T23:29:09.828Z,12.23
2022-10-14T23:31:40.124Z,12.21
2022-10-14T23:34:13.100Z,12.23
2022-10-14T23:36:42.404Z,12.19
2022-10-14T23:39:11.905Z,12.22
2022-10-14T23:41:41.731Z,12.21
2022-10-14T23:44:12.101Z,12.21
2022-10-14T23:46:40.722Z,12.18
2022-10-14T23:49:24.947Z,12.20
2022-10-14T23:51:55.230Z,12.23
2022-10-14T23:54:23.931Z,12.22
2022-10-14T23:56:53.928Z,12.19
2022-10-14T23:59:22.642Z,12.17
